createdAt,value
2018-12-31T00:00:59.454Z,8.85
2018-12-31T00:03:39.567Z,9.05
2018-12-31T00:06:19.471Z,11.65
2018-12-31T00:08:59.101Z,10.40
2018-12-31T00:11:38.992Z,10.82
2018-12-31T00:14:19.065Z,10.63
2018-12-31T00:16:59.014Z,22.15
2018-12-31T00:19:40.108Z,9.20
2018-12-31T00:22:19.969Z,10.75
2018-12-31T00:24:59.886Z,9.38
2018-12-31T00:27:39.760Z,14.75
2018-12-31T00:30:19.695Z,14.75
2018-12-31T00:32:59.479Z,13.50
2018-12-31T00:35:39.523Z,9.95
2018-12-31T00:38:19.325Z,12.88
2018-12-31T00:40:59.944Z,12.20
2018-12-31T00:43:39.733Z,11.40
2018-12-31T00:46:19.884Z,10.70
2018-12-31T00:48:59.905Z,10.23
2018-12-31T00:51:39.736Z,9.88
2018-12-31T00:54:19.415Z,12.13
2018-12-31T00:56:59.197Z,8.35
2018-12-31T00:59:38.886Z,11.85
2018-12-31T01:02:19.213Z,10.78
2018-12-31T01:04:58.913Z,18.30
2018-12-31T01:07:38.788Z,11.18
2018-12-31T01:10:18.454Z,10.85
2018-12-31T01:12:58.630Z,12.10
2018-12-31T01:15:38.480Z,9.88
2018-12-31T01:18:18.373Z,8.90
2018-12-31T01:20:59.115Z,13.18
2018-12-31T01:23:38.809Z,9.63
2018-12-31T01:26:22.631Z,9.00
2018-12-31T01:29:02.552Z,11.60
2018-12-31T01:31:42.486Z,13.00
2018-12-31T01:34:23.396Z,10.18
2018-12-31T01:37:03.056Z,10.72
2018-12-31T01:39:42.723Z,12.30
2018-12-31T01:42:22.433Z,10.23
2018-12-31T01:45:02.443Z,12.28
2018-12-31T01:47:44.784Z,12.90
2018-12-31T01:50:24.491Z,6.15
2018-12-31T01:53:04.523Z,9.95
2018-12-31T01:55:44.348Z,8.58
2018-12-31T01:58:25.295Z,15.48
2018-12-31T02:01:05.172Z,10.03
2018-12-31T02:03:44.857Z,11.25
2018-12-31T02:06:24.903Z,9.08
2018-12-31T02:09:06.758Z,10.40
2018-12-31T02:11:46.473Z,13.32
2018-12-31T02:14:26.223Z,15.03
2018-12-31T02:17:05.963Z,12.03
2018-12-31T02:19:45.969Z,11.33
2018-12-31T02:22:25.917Z,11.73
2018-12-31T02:25:05.791Z,10.88
2018-12-31T02:27:45.462Z,10.55
2018-12-31T02:30:25.200Z,13.43
2018-12-31T02:33:05.084Z,8.95
2018-12-31T02:35:44.721Z,9.53
2018-12-31T02:38:24.535Z,11.55
2018-12-31T02:41:04.413Z,18.70
2018-12-31T02:43:44.274Z,11.80
2018-12-31T02:46:23.972Z,8.53
2018-12-31T02:49:03.767Z,4.75
2018-12-31T02:51:43.549Z,5.80
2018-12-31T02:54:23.314Z,12.43
2018-12-31T02:57:03.051Z,9.43
2018-12-31T02:59:43.258Z,12.23
2018-12-31T03:02:24.373Z,6.40
2018-12-31T03:05:04.694Z,9.03
2018-12-31T03:07:44.394Z,11.83
2018-12-31T03:10:33.354Z,8.03
2018-12-31T03:13:13.065Z,11.50
2018-12-31T03:15:53.047Z,9.88
2018-12-31T03:18:32.638Z,12.70
2018-12-31T03:21:14.564Z,8.98
2018-12-31T03:23:54.345Z,12.78
2018-12-31T03:26:35.004Z,11.12
2018-12-31T03:29:14.921Z,7.17
2018-12-31T03:31:54.921Z,9.63
2018-12-31T03:34:34.738Z,12.78
2018-12-31T03:37:14.737Z,12.35
2018-12-31T03:39:55.550Z,11.38
2018-12-31T03:42:35.297Z,16.52
2018-12-31T03:45:15.354Z,9.28
2018-12-31T03:47:55.092Z,11.22
2018-12-31T03:50:35.064Z,17.23
2018-12-31T03:53:14.828Z,10.00
2018-12-31T03:55:55.887Z,13.05
2018-12-31T03:58:35.548Z,8.35
2018-12-31T04:01:15.326Z,11.15
2018-12-31T04:03:55.051Z,12.78
2018-12-31T04:06:34.725Z,9.45
2018-12-31T04:09:14.338Z,13.62
2018-12-31T04:11:54.006Z,11.28
2018-12-31T04:14:33.649Z,6.33
2018-12-31T04:17:13.674Z,8.63
2018-12-31T04:19:53.498Z,12.00
2018-12-31T04:22:35.893Z,8.30
2018-12-31T04:25:16.933Z,8.48
2018-12-31T04:27:56.574Z,13.43
2018-12-31T04:30:36.528Z,8.65
2018-12-31T04:33:16.412Z,7.65
2018-12-31T04:35:56.445Z,13.80
2018-12-31T04:38:36.210Z,6.47
2018-12-31T04:41:16.099Z,8.43
2018-12-31T04:43:55.746Z,7.08
2018-12-31T04:46:35.628Z,12.47
2018-12-31T04:49:15.687Z,14.63
2018-12-31T04:51:55.398Z,10.72
2018-12-31T04:54:35.350Z,9.63
2018-12-31T04:57:15.025Z,11.73
2018-12-31T04:59:54.684Z,16.77
2018-12-31T05:02:34.484Z,12.90
2018-12-31T05:05:17.291Z,13.40
2018-12-31T05:07:57.846Z,10.23
2018-12-31T05:10:37.519Z,11.50
2018-12-31T05:13:17.369Z,13.22
2018-12-31T05:15:57.297Z,10.15
2018-12-31T05:18:38.490Z,16.52
2018-12-31T05:21:18.238Z,13.68
2018-12-31T05:23:58.221Z,11.88
2018-12-31T05:26:37.909Z,12.13
2018-12-31T05:29:21.241Z,20.17
2018-12-31T05:32:01.142Z,14.45
2018-12-31T05:34:40.931Z,19.48
2018-12-31T05:37:20.770Z,11.83
2018-12-31T05:40:00.830Z,16.57
2018-12-31T05:42:40.601Z,18.42
2018-12-31T05:45:20.449Z,20.32
2018-12-31T05:48:00.090Z,21.82
2018-12-31T05:50:39.837Z,16.77
2018-12-31T05:53:19.541Z,16.30
2018-12-31T05:55:59.402Z,19.15
2018-12-31T05:58:39.459Z,21.82
2018-12-31T06:01:19.170Z,19.12
2018-12-31T06:04:01.884Z,22.27
2018-12-31T06:06:41.728Z,22.82
2018-12-31T06:09:23.949Z,17.80
2018-12-31T06:12:03.696Z,20.65
2018-12-31T06:14:43.502Z,22.87
2018-12-31T06:17:23.184Z,16.60
2018-12-31T06:20:04.036Z,18.98
2018-12-31T06:22:43.783Z,19.32
2018-12-31T06:25:23.547Z,24.65
2018-12-31T06:28:03.769Z,24.55
2018-12-31T06:30:43.856Z,27.50
2018-12-31T06:33:23.855Z,21.05
2018-12-31T06:36:03.597Z,25.35
2018-12-31T06:38:43.276Z,19.37
2018-12-31T06:41:23.283Z,19.98
2018-12-31T06:44:03.138Z,22.77
2018-12-31T06:46:42.823Z,17.92
2018-12-31T06:49:25.496Z,23.32
2018-12-31T06:52:05.203Z,21.25
2018-12-31T06:54:45.106Z,19.90
2018-12-31T06:57:24.750Z,16.48
2018-12-31T07:00:04.961Z,24.35
2018-12-31T07:02:44.946Z,25.35
2018-12-31T07:05:25.257Z,20.55
2018-12-31T07:08:05.085Z,19.98
2018-12-31T07:10:44.763Z,22.67
2018-12-31T07:13:24.421Z,18.60
2018-12-31T07:16:04.304Z,19.87
2018-12-31T07:18:43.966Z,19.55
2018-12-31T07:21:23.796Z,22.70
2018-12-31T07:24:03.571Z,22.50
2018-12-31T07:26:44.866Z,26.15
2018-12-31T07:29:30.021Z,22.07
2018-12-31T07:32:09.861Z,21.60
2018-12-31T07:34:49.979Z,24.30
2018-12-31T07:37:29.723Z,22.40
2018-12-31T07:40:09.618Z,19.62
2018-12-31T07:42:51.181Z,20.77
2018-12-31T07:45:31.046Z,20.45
2018-12-31T07:48:10.794Z,23.47
2018-12-31T07:50:50.837Z,22.55
2018-12-31T07:53:31.001Z,21.12
2018-12-31T07:56:12.336Z,21.68
2018-12-31T07:58:52.290Z,26.23
2018-12-31T08:01:33.242Z,25.92
2018-12-31T08:04:13.054Z,18.23
2018-12-31T08:06:52.997Z,25.05
2018-12-31T08:09:35.166Z,19.45
2018-12-31T08:12:14.826Z,27.22
2018-12-31T08:14:54.829Z,41.95
2018-12-31T08:17:35.722Z,46.75
2018-12-31T08:20:15.406Z,30.35
2018-12-31T08:22:55.203Z,26.65
2018-12-31T08:25:35.888Z,26.65
2018-12-31T08:28:18.142Z,23.83
2018-12-31T08:30:57.906Z,25.70
2018-12-31T08:33:39.641Z,19.80
2018-12-31T08:36:19.376Z,22.95
2018-12-31T08:39:01.612Z,23.95
2018-12-31T08:41:44.428Z,23.05
2018-12-31T08:44:27.329Z,23.12
2018-12-31T08:47:06.957Z,26.57
2018-12-31T08:49:47.902Z,22.82
2018-12-31T08:52:29.906Z,23.07
2018-12-31T08:55:12.340Z,20.17
2018-12-31T08:57:57.476Z,27.82
2018-12-31T09:00:37.214Z,23.73
2018-12-31T09:03:19.150Z,21.70
2018-12-31T09:06:00.040Z,18.25
2018-12-31T09:08:39.755Z,21.17
2018-12-31T09:11:21.715Z,20.57
2018-12-31T09:14:01.607Z,21.90
2018-12-31T09:16:42.622Z,24.60
2018-12-31T09:19:25.302Z,34.23
2018-12-31T09:22:05.165Z,30.52
2018-12-31T09:24:47.521Z,27.27
2018-12-31T09:27:27.501Z,22.98
2018-12-31T09:30:07.556Z,20.65
2018-12-31T09:32:50.203Z,26.55
2018-12-31T09:35:34.307Z,28.92
2018-12-31T09:38:15.409Z,28.42
2018-12-31T09:40:55.186Z,21.25
2018-12-31T09:43:34.884Z,21.87
2018-12-31T09:46:17.733Z,28.07
2018-12-31T09:48:57.782Z,21.93
2018-12-31T09:51:37.684Z,23.45
2018-12-31T09:54:17.478Z,28.10
2018-12-31T09:56:58.470Z,19.05
2018-12-31T09:59:38.193Z,18.48
2018-12-31T10:02:17.911Z,19.90
2018-12-31T10:04:57.944Z,20.95
2018-12-31T10:07:39.989Z,23.22
2018-12-31T10:10:22.099Z,19.25
2018-12-31T10:13:01.773Z,21.17
2018-12-31T10:15:43.782Z,23.62
2018-12-31T10:18:23.804Z,16.65
2018-12-31T10:21:03.589Z,26.73
2018-12-31T10:23:43.237Z,22.20
2018-12-31T10:26:22.931Z,21.93
2018-12-31T10:29:05.734Z,25.62
2018-12-31T10:31:46.527Z,18.77
2018-12-31T10:34:27.068Z,23.02
2018-12-31T10:37:06.734Z,26.07
2018-12-31T10:39:47.810Z,22.85
2018-12-31T10:42:29.893Z,22.02
2018-12-31T10:45:11.920Z,19.80
2018-12-31T10:47:53.190Z,24.32
2018-12-31T10:50:32.956Z,20.20
2018-12-31T10:53:12.862Z,20.48
2018-12-31T10:55:53.086Z,25.43
2018-12-31T10:58:35.271Z,23.10
2018-12-31T11:01:16.307Z,26.20
2018-12-31T11:03:56.175Z,23.05
2018-12-31T11:06:35.902Z,21.73
2018-12-31T11:09:15.958Z,22.35
2018-12-31T11:11:55.680Z,23.55
2018-12-31T11:14:36.014Z,20.23
2018-12-31T11:17:15.972Z,22.13
2018-12-31T11:19:57.052Z,27.10
2018-12-31T11:22:37.045Z,24.10
2018-12-31T11:25:19.123Z,21.52
2018-12-31T11:27:58.789Z,26.25
2018-12-31T11:30:38.533Z,23.38
2018-12-31T11:33:18.275Z,39.13
2018-12-31T11:35:58.386Z,21.10
2018-12-31T11:38:39.650Z,26.23
2018-12-31T11:41:20.268Z,22.25
2018-12-31T11:44:00.043Z,21.60
2018-12-31T11:46:40.176Z,19.60
2018-12-31T11:49:19.873Z,21.48
2018-12-31T11:51:59.664Z,23.45
2018-12-31T11:54:39.465Z,20.55
2018-12-31T11:57:19.311Z,23.50
2018-12-31T12:00:01.270Z,17.05
2018-12-31T12:02:44.338Z,19.48
2018-12-31T12:05:24.083Z,18.65
2018-12-31T12:08:07.377Z,16.80
2018-12-31T12:10:47.101Z,14.07
2018-12-31T12:13:27.314Z,15.45
2018-12-31T12:16:07.102Z,17.17
2018-12-31T12:18:46.937Z,15.38
2018-12-31T12:21:26.788Z,14.20
2018-12-31T12:24:06.551Z,17.00
2018-12-31T12:26:46.365Z,12.78
2018-12-31T12:29:28.983Z,17.27
2018-12-31T12:32:11.700Z,20.72
2018-12-31T12:34:51.919Z,14.20
2018-12-31T12:37:32.440Z,18.85
2018-12-31T12:40:12.434Z,17.25
2018-12-31T12:42:52.209Z,14.20
2018-12-31T12:45:36.311Z,15.68
2018-12-31T12:48:16.315Z,14.90
2018-12-31T12:50:56.963Z,15.20
2018-12-31T12:53:36.861Z,13.72
2018-12-31T12:56:16.859Z,14.30
2018-12-31T12:58:56.845Z,15.32
2018-12-31T13:01:37.049Z,17.55
2018-12-31T13:04:17.120Z,18.35
2018-12-31T13:06:56.900Z,18.50
2018-12-31T13:09:36.785Z,16.60
2018-12-31T13:12:17.927Z,16.90
2018-12-31T13:14:59.270Z,18.92
2018-12-31T13:17:39.054Z,20.37
2018-12-31T13:20:18.966Z,17.90
2018-12-31T13:22:58.783Z,21.60
2018-12-31T13:25:38.931Z,20.30
2018-12-31T13:28:19.714Z,16.30
2018-12-31T13:30:59.664Z,17.65
2018-12-31T13:33:39.534Z,21.30
2018-12-31T13:36:19.227Z,19.32
2018-12-31T13:39:00.133Z,18.35
2018-12-31T13:41:41.770Z,19.60
2018-12-31T13:44:21.640Z,20.80
2018-12-31T13:47:01.568Z,21.52
2018-12-31T13:49:41.847Z,19.87
2018-12-31T13:52:21.766Z,19.17
2018-12-31T13:55:01.876Z,19.98
2018-12-31T13:57:41.668Z,20.97
2018-12-31T14:00:21.415Z,18.70
2018-12-31T14:03:01.132Z,21.82
2018-12-31T14:05:41.094Z,20.08
2018-12-31T14:08:20.957Z,20.50
2018-12-31T14:11:01.221Z,26.73
2018-12-31T14:13:41.144Z,23.98
2018-12-31T14:16:21.039Z,19.70
2018-12-31T14:19:01.844Z,24.57
2018-12-31T14:21:41.625Z,20.85
2018-12-31T14:24:21.313Z,22.93
2018-12-31T14:27:03.133Z,28.17
2018-12-31T14:29:42.945Z,21.65
2018-12-31T14:32:24.440Z,17.37
2018-12-31T14:35:04.445Z,20.45
2018-12-31T14:37:44.970Z,18.65
2018-12-31T14:40:25.047Z,17.85
2018-12-31T14:43:04.948Z,20.68
2018-12-31T14:45:44.759Z,25.00
2018-12-31T14:48:24.801Z,20.50
2018-12-31T14:51:04.540Z,23.30
2018-12-31T14:53:44.611Z,20.15
2018-12-31T14:56:24.356Z,18.65
2018-12-31T14:59:04.845Z,18.42
2018-12-31T15:01:45.266Z,25.05
2018-12-31T15:04:27.968Z,25.43
2018-12-31T15:07:07.974Z,21.80
2018-12-31T15:09:48.872Z,21.40
2018-12-31T15:12:29.028Z,22.48
2018-12-31T15:15:09.544Z,24.30
2018-12-31T15:17:52.201Z,22.80
2018-12-31T15:20:34.570Z,23.95
2018-12-31T15:23:17.237Z,25.02
2018-12-31T15:26:10.606Z,19.98
2018-12-31T15:28:50.627Z,25.88
2018-12-31T15:31:30.458Z,27.10
2018-12-31T15:34:10.235Z,25.08
2018-12-31T15:36:50.050Z,25.23
2018-12-31T15:39:29.992Z,26.55
2018-12-31T15:42:09.693Z,24.63
2018-12-31T15:44:55.172Z,25.77
2018-12-31T15:47:35.009Z,28.12
2018-12-31T15:50:17.685Z,31.27
2018-12-31T15:52:58.756Z,30.90
2018-12-31T15:55:42.069Z,34.80
2018-12-31T15:58:22.060Z,36.30
2018-12-31T16:01:02.029Z,29.80
2018-12-31T16:03:41.818Z,31.27
2018-12-31T16:06:21.584Z,31.95
2018-12-31T16:09:01.465Z,35.28
2018-12-31T16:11:41.809Z,37.93
2018-12-31T16:14:21.773Z,40.98
2018-12-31T16:17:01.892Z,33.05
2018-12-31T16:19:42.444Z,33.58
2018-12-31T16:22:22.395Z,32.98
2018-12-31T16:25:04.456Z,29.45
2018-12-31T16:27:45.492Z,27.80
2018-12-31T16:30:29.818Z,46.02
2018-12-31T16:33:12.566Z,38.50
2018-12-31T16:35:52.402Z,34.60
2018-12-31T16:38:32.199Z,39.88
2018-12-31T16:41:12.163Z,40.60
2018-12-31T16:43:52.021Z,35.98
2018-12-31T16:46:31.733Z,40.65
2018-12-31T16:49:12.977Z,36.95
2018-12-31T16:51:52.680Z,38.45
2018-12-31T16:54:33.739Z,45.50
2018-12-31T16:57:16.839Z,46.02
2018-12-31T16:59:56.566Z,62.95
2018-12-31T17:02:36.850Z,47.55
2018-12-31T17:05:16.717Z,70.95
2018-12-31T17:07:56.717Z,66.92
2018-12-31T17:10:40.945Z,83.35
2018-12-31T17:13:20.757Z,79.32
2018-12-31T17:16:02.560Z,69.32
2018-12-31T17:18:42.379Z,51.40
2018-12-31T17:21:22.237Z,51.48
2018-12-31T17:24:01.848Z,54.10
2018-12-31T17:26:41.874Z,44.70
2018-12-31T17:29:22.260Z,42.90
2018-12-31T17:32:03.003Z,47.85
2018-12-31T17:34:46.383Z,39.25
2018-12-31T17:37:28.951Z,47.00
2018-12-31T17:40:08.818Z,42.75
2018-12-31T17:42:48.446Z,42.45
2018-12-31T17:45:31.541Z,40.65
2018-12-31T17:48:11.399Z,42.53
2018-12-31T17:50:51.303Z,35.95
2018-12-31T17:53:31.149Z,36.28
2018-12-31T17:56:10.854Z,37.08
2018-12-31T17:58:51.235Z,40.00
2018-12-31T18:01:31.546Z,36.77
2018-12-31T18:04:14.028Z,38.70
2018-12-31T18:06:53.705Z,36.38
2018-12-31T18:09:33.759Z,38.98
2018-12-31T18:12:13.551Z,42.43
2018-12-31T18:14:53.564Z,44.40
2018-12-31T18:17:33.348Z,38.10
2018-12-31T18:20:13.327Z,38.85
2018-12-31T18:22:53.249Z,40.95
2018-12-31T18:25:33.120Z,48.75
2018-12-31T18:28:13.047Z,49.70
2018-12-31T18:30:53.508Z,58.55
2018-12-31T18:33:33.190Z,65.32
2018-12-31T18:36:12.803Z,49.90
2018-12-31T18:38:52.518Z,44.58
2018-12-31T18:41:34.844Z,39.63
2018-12-31T18:44:15.571Z,51.68
2018-12-31T18:46:55.296Z,50.38
2018-12-31T18:49:35.280Z,39.98
2018-12-31T18:52:15.464Z,36.98
2018-12-31T18:54:55.266Z,40.38
2018-12-31T18:57:35.468Z,32.95
2018-12-31T19:00:16.714Z,34.05
2018-12-31T19:02:59.779Z,37.10
2018-12-31T19:05:39.563Z,35.40
2018-12-31T19:08:20.808Z,38.78
2018-12-31T19:11:00.886Z,40.25
2018-12-31T19:13:42.903Z,39.95
2018-12-31T19:16:22.742Z,38.30
2018-12-31T19:19:02.412Z,41.70
2018-12-31T19:21:42.113Z,31.85
2018-12-31T19:24:24.567Z,32.33
2018-12-31T19:27:07.230Z,33.60
2018-12-31T19:29:46.921Z,29.98
2018-12-31T19:32:26.620Z,29.20
2018-12-31T19:35:06.804Z,34.78
2018-12-31T19:37:50.026Z,35.45
2018-12-31T19:40:29.869Z,37.65
2018-12-31T19:43:09.639Z,67.45
2018-12-31T19:45:49.402Z,39.90
2018-12-31T19:48:29.031Z,39.85
2018-12-31T19:51:09.344Z,36.53
2018-12-31T19:53:49.191Z,39.33
2018-12-31T19:56:28.853Z,49.27
2018-12-31T19:59:09.390Z,49.10
2018-12-31T20:01:50.612Z,49.40
2018-12-31T20:04:31.748Z,50.83
2018-12-31T20:07:11.574Z,75.97
2018-12-31T20:09:52.149Z,86.80
2018-12-31T20:12:33.175Z,54.45
2018-12-31T20:15:13.962Z,56.08
2018-12-31T20:17:54.259Z,56.60
2018-12-31T20:20:34.001Z,65.17
2018-12-31T20:23:13.768Z,64.12
2018-12-31T20:25:53.459Z,47.38
2018-12-31T20:28:33.919Z,41.70
2018-12-31T20:31:13.539Z,55.43
2018-12-31T20:33:53.555Z,55.35
2018-12-31T20:36:33.717Z,57.95
2018-12-31T20:39:13.467Z,53.70
2018-12-31T20:41:53.408Z,46.10
2018-12-31T20:44:33.562Z,47.03
2018-12-31T20:47:16.619Z,72.72
2018-12-31T20:49:56.821Z,62.45
2018-12-31T20:52:36.795Z,70.85
2018-12-31T20:55:18.670Z,58.52
2018-12-31T20:57:58.660Z,62.35
2018-12-31T21:00:38.545Z,56.92
2018-12-31T21:03:20.725Z,56.28
2018-12-31T21:06:02.701Z,51.45
2018-12-31T21:08:43.087Z,51.02
2018-12-31T21:11:22.933Z,55.85
2018-12-31T21:14:04.351Z,57.60
2018-12-31T21:16:56.529Z,60.10
2018-12-31T21:19:36.318Z,68.75
2018-12-31T21:22:16.013Z,58.35
2018-12-31T21:24:58.588Z,49.10
2018-12-31T21:27:40.009Z,47.03
2018-12-31T21:30:19.920Z,54.13
2018-12-31T21:33:00.011Z,54.60
2018-12-31T21:35:40.459Z,52.75
2018-12-31T21:38:20.328Z,73.17
2018-12-31T21:41:01.870Z,64.62
2018-12-31T21:43:43.013Z,72.78
2018-12-31T21:46:22.798Z,91.45
2018-12-31T21:49:03.995Z,98.67
2018-12-31T21:51:43.744Z,85.90
2018-12-31T21:54:26.430Z,74.90
2018-12-31T21:57:06.367Z,70.10
2018-12-31T21:59:46.622Z,59.20
2018-12-31T22:02:26.484Z,57.60
2018-12-31T22:05:06.666Z,58.02
2018-12-31T22:07:46.410Z,47.88
2018-12-31T22:10:26.304Z,48.30
2018-12-31T22:13:06.020Z,44.80
2018-12-31T22:15:46.124Z,45.58
2018-12-31T22:18:26.342Z,42.62
2018-12-31T22:21:06.177Z,68.40
2018-12-31T22:23:45.958Z,59.23
2018-12-31T22:26:25.826Z,57.98
2018-12-31T22:29:09.384Z,70.70
2018-12-31T22:31:51.355Z,80.40
2018-12-31T22:34:31.529Z,118.00
2018-12-31T22:37:11.620Z,84.15
2018-12-31T22:39:51.943Z,68.42
2018-12-31T22:42:31.903Z,62.60
2018-12-31T22:45:12.091Z,43.58
2018-12-31T22:47:53.834Z,82.10
2018-12-31T22:50:33.687Z,74.70
2018-12-31T22:53:13.493Z,134.18
2018-12-31T22:55:53.422Z,53.42
2018-12-31T22:58:37.658Z,46.08
2018-12-31T23:01:17.951Z,65.70
2018-12-31T23:04:00.629Z,366.02
2018-12-31T23:06:41.874Z,257.98
2018-12-31T23:09:24.587Z,356.20
2018-12-31T23:12:04.893Z,441.25
2018-12-31T23:14:44.828Z,497.67
2018-12-31T23:17:28.566Z,455.18
2018-12-31T23:20:11.442Z,360.73
2018-12-31T23:22:52.916Z,309.10
2018-12-31T23:25:38.598Z,434.13
2018-12-31T23:28:18.583Z,322.20
2018-12-31T23:30:59.506Z,493.93
2018-12-31T23:33:40.724Z,414.10
2018-12-31T23:36:20.677Z,188.80
2018-12-31T23:39:05.244Z,160.22
2018-12-31T23:41:43.767Z,146.40
2018-12-31T23:44:24.762Z,135.25
2018-12-31T23:47:04.546Z,136.52
2018-12-31T23:49:46.951Z,96.97
2018-12-31T23:52:28.283Z,143.40
2018-12-31T23:55:08.722Z,103.85
2018-12-31T23:57:48.542Z,71.72
